Time;durP1;ratioP1;P1;durP2;ratioP2;P2;SDS_P1;SDS_P2;PMS_P1;PMS_P2;Temp;Humidity;BMP_temperature;BMP_pressure;BME280_temperature;BME280_humidity;BME280_pressure;Samples;Min_cycle;Max_cycle;Signal;HPM_P1;HPM_P2
2023/12/26 00:31:43;;;;;;;0.00;0.00;;;;;;;;;;4928390;29;20064;-91
2023/12/26 00:34:44;;;;;;;0.10;0.10;;;;;;;;;;4901259;29;20028;-90
2023/12/26 00:50:13;;;;;;;0.10;0.10;;;;;;;;;;5479231;23;20066;-91
2023/12/26 00:53:38;;;;;;;0.00;0.00;;;;;;;;;;4960473;29;20042;-89
2023/12/26 01:43:31;;;;;;;0.00;0.00;;;;;;;;;;5053574;23;20055;-90
2023/12/26 01:52:24;;;;;;;0.10;0.10;;;;;;;;;;4941994;28;20032;-90
2023/12/26 02:00:31;;;;;;;0.10;0.10;;;;;;;;;;4963110;29;20058;-90
2023/12/26 02:03:09;;;;;;;0.03;0.03;;;;;;;;;;4966864;29;20087;-89
2023/12/26 02:05:57;;;;;;;0.10;0.10;;;;;;;;;;4962698;29;20052;-90
2023/12/26 02:08:55;;;;;;;0.10;0.10;;;;;;;;;;4968088;29;20046;-90
2023/12/26 02:11:43;;;;;;;0.00;0.00;;;;;;;;;;4967780;29;20062;-91
2023/12/26 02:14:57;;;;;;;0.00;0.00;;;;;;;;;;4975951;28;20051;-91
2023/12/26 02:17:50;;;;;;;0.00;0.00;;;;;;;;;;4957183;28;20062;-91
2023/12/26 02:20:52;;;;;;;0.00;0.00;;;;;;;;;;4973082;29;20055;-91
2023/12/26 02:23:37;;;;;;;0.00;0.00;;;;;;;;;;4918678;28;20039;-91
2023/12/26 02:26:43;;;;;;;0.08;0.08;;;;;;;;;;4973068;28;20063;-92
2023/12/26 02:29:33;;;;;;;0.00;0.00;;;;;;;;;;4952354;29;20091;-92
2023/12/26 02:32:29;;;;;;;0.03;0.03;;;;;;;;;;4951970;29;20428;-91
2023/12/26 02:35:18;;;;;;;;;;;;;;;;;;;;;
2023/12/26 02:38:13;;;;;;;0.00;0.00;;;;;;;;;;4963501;29;20043;-91
2023/12/26 02:41:08;;;;;;;;;;;;;;;;;;;;;
2023/12/26 02:43:52;;;;;;;0.00;0.00;;;;;;;;;;4962626;29;20537;-91
2023/12/26 02:46:33;;;;;;;0.10;0.10;;;;;;;;;;4965760;29;20052;-92
2023/12/26 02:49:25;;;;;;;0.00;0.00;;;;;;;;;;4965390;29;20055;-91
2023/12/26 02:52:15;;;;;;;0.10;0.10;;;;;;;;;;4967741;29;20479;-91
2023/12/26 02:54:55;;;;;;;0.00;0.00;;;;;;;;;;4967906;29;20051;-90
2023/12/26 02:57:35;;;;;;;0.10;0.10;;;;;;;;;;4968622;29;20051;-91
2023/12/26 03:00:27;;;;;;;0.00;0.00;;;;;;;;;;4970388;28;20059;-92
2023/12/26 03:03:17;;;;;;;;;;;;;;;;;;;;;
2023/12/26 03:05:54;;;;;;;0.00;0.00;;;;;;;;;;4973327;29;20054;-91
2023/12/26 03:08:39;;;;;;;0.00;0.00;;;;;;;;;;4971920;29;20082;-92
2023/12/26 03:11:30;;;;;;;0.08;0.08;;;;;;;;;;4971595;29;20093;-91
2023/12/26 03:14:05;;;;;;;0.00;0.00;;;;;;;;;;4956768;29;20113;-91
2023/12/26 03:16:40;;;;;;;0.10;0.10;;;;;;;;;;4972991;29;20051;-91
2023/12/26 03:19:52;;;;;;;;;;;;;;;;;;;;;
2023/12/26 03:22:24;;;;;;;0.10;0.10;;;;;;;;;;4954446;29;20047;-92
2023/12/26 03:25:08;;;;;;;0.00;0.00;;;;;;;;;;4969818;29;20043;-91
2023/12/26 03:27:46;;;;;;;0.00;0.00;;;;;;;;;;4974236;29;20055;-92
2023/12/26 03:30:32;;;;;;;0.10;0.10;;;;;;;;;;4975637;29;20055;-91
2023/12/26 03:33:22;;;;;;;0.03;0.03;;;;;;;;;;4974329;29;20062;-91
2023/12/26 03:36:16;;;;;;;0.05;0.05;;;;;;;;;;4955591;29;20055;-91
2023/12/26 03:38:58;;;;;;;0.08;0.08;;;;;;;;;;4971859;29;20055;-91
2023/12/26 03:41:50;;;;;;;0.10;0.10;;;;;;;;;;4967924;29;20411;-91
2023/12/26 03:44:38;;;;;;;0.00;0.00;;;;;;;;;;4967206;29;20121;-92
2023/12/26 03:47:42;;;;;;;0.00;0.00;;;;;;;;;;4964955;29;20057;-91
2023/12/26 03:50:24;;;;;;;0.00;0.00;;;;;;;;;;4968020;29;20506;-91
2023/12/26 03:53:01;;;;;;;0.10;0.10;;;;;;;;;;4966486;29;20419;-91
2023/12/26 03:55:46;;;;;;;0.00;0.00;;;;;;;;;;4968721;29;20063;-90
2023/12/26 03:58:38;;;;;;;0.10;0.10;;;;;;;;;;4950143;29;20335;-91
2023/12/26 04:01:31;;;;;;;0.00;0.00;;;;;;;;;;4950171;29;20051;-91
2023/12/26 04:04:10;;;;;;;0.00;0.00;;;;;;;;;;4965581;29;20111;-91
2023/12/26 04:06:58;;;;;;;0.10;0.10;;;;;;;;;;4963875;29;20312;-91
2023/12/26 04:09:44;;;;;;;0.00;0.00;;;;;;;;;;4959425;29;20043;-90
2023/12/26 04:12:25;;;;;;;0.00;0.00;;;;;;;;;;4962272;29;20059;-91
2023/12/26 04:14:56;;;;;;;0.00;0.00;;;;;;;;;;4965461;28;20051;-91
2023/12/26 04:17:44;;;;;;;0.05;0.05;;;;;;;;;;4949964;29;20418;-91
2023/12/26 04:20:33;;;;;;;0.05;0.05;;;;;;;;;;4963396;29;20055;-91
2023/12/26 04:24:18;;;;;;;0.00;0.00;;;;;;;;;;5162322;27;24416;-92
2023/12/26 04:26:55;;;;;;;0.52;0.32;;;;;;;;;;5147575;27;20100;-93
2023/12/26 04:29:31;;;;;;;0.00;0.00;;;;;;;;;;5147706;27;20126;-92
2023/12/26 04:35:19;;;;;;;0.10;0.10;;;;;;;;;;5147956;27;20103;-91
2023/12/26 04:38:08;;;;;;;0.03;0.03;;;;;;;;;;5154860;27;20108;-91
2023/12/26 04:40:50;;;;;;;0.00;0.00;;;;;;;;;;5155543;27;20318;-91
2023/12/26 04:43:53;;;;;;;0.00;0.00;;;;;;;;;;5148189;27;20061;-91
2023/12/26 04:46:34;;;;;;;0.00;0.00;;;;;;;;;;5146786;27;20043;-91
2023/12/26 04:49:19;;;;;;;0.00;0.00;;;;;;;;;;5146708;27;20061;-92
2023/12/26 04:51:55;;;;;;;0.00;0.00;;;;;;;;;;5148061;27;20141;-93
2023/12/26 04:54:47;;;;;;;0.10;0.10;;;;;;;;;;5148077;27;20061;-91
2023/12/26 04:57:37;;;;;;;0.28;0.28;;;;;;;;;;5163055;27;20035;-91
2023/12/26 05:00:16;;;;;;;0.17;0.17;;;;;;;;;;5146545;27;20046;-91
2023/12/26 05:03:04;;;;;;;0.20;0.10;;;;;;;;;;5163645;27;20035;-91
2023/12/26 05:05:51;;;;;;;0.00;0.00;;;;;;;;;;5149390;27;20057;-92
2023/12/26 05:13:44;;;;;;;0.20;0.20;;;;;;;;;;6085503;22;20051;-91
2023/12/26 05:16:28;;;;;;;0.10;0.10;;;;;;;;;;5088026;28;20059;-92
2023/12/26 05:19:05;;;;;;;0.10;0.10;;;;;;;;;;5089949;28;20075;-91
2023/12/26 05:21:52;;;;;;;0.10;0.10;;;;;;;;;;5085637;28;20044;-91
2023/12/26 05:24:29;;;;;;;0.00;0.00;;;;;;;;;;5088105;28;20048;-92
2023/12/26 05:27:22;;;;;;;0.10;0.10;;;;;;;;;;5090522;28;20048;-90
2023/12/26 05:29:57;;;;;;;0.00;0.00;;;;;;;;;;5105611;28;20080;-92
2023/12/26 05:32:33;;;;;;;1.63;0.50;;;;;;;;;;5091791;28;20036;-91
2023/12/26 05:35:08;;;;;;;1.13;0.10;;;;;;;;;;5094898;28;20052;-92
2023/12/26 05:37:51;;;;;;;;;;;;;;;;;;5086404;28;20079;-91
2023/12/26 05:40:27;;;;;;;0.10;0.10;;;;;;;;;;5075898;28;19920;-92
2023/12/26 05:42:59;;;;;;;0.10;0.10;;;;;;;;;;5074680;28;20048;-92
2023/12/26 05:45:43;;;;;;;0.03;0.03;;;;;;;;;;5076268;28;20052;-92
2023/12/26 05:48:14;;;;;;;0.10;0.10;;;;;;;;;;5074010;28;20071;-92
2023/12/26 05:50:47;;;;;;;0.03;0.03;;;;;;;;;;5074090;28;20051;-91
2023/12/26 05:53:22;;;;;;;0.10;0.10;;;;;;;;;;5073617;28;20323;-92
2023/12/26 05:56:05;;;;;;;0.00;0.00;;;;;;;;;;5074294;28;20096;-92
2023/12/26 05:58:42;;;;;;;0.05;0.05;;;;;;;;;;5072537;28;20044;-91
2023/12/26 06:01:18;;;;;;;0.10;0.10;;;;;;;;;;5072584;28;20045;-91
2023/12/26 06:03:59;;;;;;;0.05;0.05;;;;;;;;;;5074416;28;20052;-91
2023/12/26 06:06:38;;;;;;;0.00;0.00;;;;;;;;;;5074123;28;20135;-92
2023/12/26 06:09:27;;;;;;;0.00;0.00;;;;;;;;;;5072363;28;20059;-91
2023/12/26 06:12:00;;;;;;;0.10;0.10;;;;;;;;;;5078449;28;20041;-92
2023/12/26 06:14:42;;;;;;;2.25;1.27;;;;;;;;;;5072460;28;20058;-92
2023/12/26 06:17:24;;;;;;;0.10;0.10;;;;;;;;;;5074627;28;20036;-93
2023/12/26 06:20:03;;;;;;;0.10;0.10;;;;;;;;;;5069566;28;20083;-91
2023/12/26 06:22:57;;;;;;;9.57;2.67;;;;;;;;;;5069882;28;20096;-91
2023/12/26 06:25:48;;;;;;;;;;;;;;;;;;;;;
2023/12/26 06:28:22;;;;;;;1.13;0.25;;;;;;;;;;5079850;28;20359;-91
2023/12/26 06:30:57;;;;;;;0.93;0.32;;;;;;;;;;5065769;28;20053;-92
2023/12/26 06:33:40;;;;;;;0.00;0.00;;;;;;;;;;5068193;28;20096;-91
2023/12/26 06:36:11;;;;;;;0.20;0.20;;;;;;;;;;5072516;28;20143;-91
2023/12/26 06:38:44;;;;;;;0.10;0.10;;;;;;;;;;5066611;28;20059;-92
2023/12/26 06:41:25;;;;;;;0.10;0.10;;;;;;;;;;5066514;28;20057;-91
2023/12/26 06:44:31;;;;;;;0.20;0.20;;;;;;;;;;5068403;28;20071;-92
2023/12/26 06:47:20;;;;;;;0.00;0.00;;;;;;;;;;5067464;28;20051;-92
2023/12/26 06:50:01;;;;;;;0.00;0.00;;;;;;;;;;5066647;28;20120;-93
2023/12/26 06:52:38;;;;;;;0.20;0.20;;;;;;;;;;5081376;28;20064;-91
2023/12/26 06:55:18;;;;;;;2.15;1.95;;;;;;;;;;5076250;28;20071;-91
2023/12/26 06:58:04;;;;;;;0.32;0.32;;;;;;;;;;5071351;28;20104;-92
2023/12/26 07:00:48;;;;;;;0.05;0.05;;;;;;;;;;5074699;28;20127;-92
2023/12/26 07:03:23;;;;;;;0.22;0.10;;;;;;;;;;5079590;28;20052;-92
2023/12/26 07:05:56;;;;;;;0.45;0.45;;;;;;;;;;5091228;28;20099;-91
2023/12/26 07:08:42;;;;;;;4.75;1.00;;;;;;;;;;5072789;28;20109;-92
2023/12/26 07:11:36;;;;;;;;;;;;;;;;;;;;;
2023/12/26 07:14:21;;;;;;;0.30;0.30;;;;;;;;;;5089855;28;20064;-90
2023/12/26 07:16:54;;;;;;;9.20;0.38;;;;;;;;;;5068218;28;20112;-91
2023/12/26 07:19:26;;;;;;;0.00;0.00;;;;;;;;;;5070745;28;20052;-90
2023/12/26 07:22:07;;;;;;;0.35;0.35;;;;;;;;;;5069762;28;20083;-91
2023/12/26 07:24:51;;;;;;;3.08;0.70;;;;;;;;;;5083535;28;20044;-91
2023/12/26 07:27:20;;;;;;;2.17;0.20;;;;;;;;;;5072539;28;20063;-90
2023/12/26 07:33:27;;;;;;;0.65;0.32;;;;;;;;;;5094366;28;20042;-91
2023/12/26 07:42:52;;;;;;;0.10;0.10;;;;;;;;;;5089968;28;20091;-90
2023/12/26 07:45:35;;;;;;;0.03;0.03;;;;;;;;;;5085157;28;20071;-91
2023/12/26 07:48:08;;;;;;;0.35;0.35;;;;;;;;;;5074768;28;20075;-91
2023/12/26 07:50:42;;;;;;;0.20;0.20;;;;;;;;;;5074690;28;20396;-91
2023/12/26 07:53:28;;;;;;;0.45;0.10;;;;;;;;;;5071761;28;20048;-92
2023/12/26 07:56:05;;;;;;;0.10;0.10;;;;;;;;;;5073902;28;20052;-90
2023/12/26 07:59:06;;;;;;;2.22;0.47;;;;;;;;;;5089680;28;20047;-90
2023/12/26 08:05:00;;;;;;;0.38;0.38;;;;;;;;;;5121511;22;20056;-89
2023/12/26 08:07:44;;;;;;;0.10;0.10;;;;;;;;;;5070922;28;20048;-90
2023/12/26 08:10:30;;;;;;;0.10;0.10;;;;;;;;;;5090345;28;20045;-91
2023/12/26 08:13:13;;;;;;;0.00;0.00;;;;;;;;;;5069529;28;20048;-92
2023/12/26 08:15:57;;;;;;;0.10;0.10;;;;;;;;;;5063417;28;20083;-91
2023/12/26 08:18:46;;;;;;;0.10;0.10;;;;;;;;;;5072677;28;20243;-91
2023/12/26 08:21:50;;;;;;;0.20;0.20;;;;;;;;;;5523934;22;20169;-92
2023/12/26 08:33:10;;;;;;;0.30;0.30;;;;;;;;;;5085482;28;20317;-90
2023/12/26 08:35:54;;;;;;;4.60;2.30;;;;;;;;;;5089474;28;20040;-91
2023/12/26 08:38:44;;;;;;;0.10;0.10;;;;;;;;;;5090888;28;20051;-91
2023/12/26 09:01:54;;;;;;;0.10;0.10;;;;;;;;;;5132631;28;20493;-90
2023/12/26 09:04:30;;;;;;;0.10;0.10;;;;;;;;;;5130875;28;20082;-90
2023/12/26 09:07:00;;;;;;;0.20;0.20;;;;;;;;;;5105246;28;20091;-90
2023/12/26 09:46:14;;;;;;;0.17;0.17;;;;;;;;;;5089661;28;20056;-91
2023/12/26 09:49:15;;;;;;;0.82;0.35;;;;;;;;;;5057182;28;20060;-89
2023/12/26 09:57:58;;;;;;;0.15;0.15;;;;;;;;;;5131248;28;20403;-92
2023/12/26 10:00:45;;;;;;;0.10;0.10;;;;;;;;;;5490295;22;20039;-91
2023/12/26 10:11:52;;;;;;;0.20;0.20;;;;;;;;;;5334775;22;20039;-90
2023/12/26 10:24:48;;;;;;;0.10;0.10;;;;;;;;;;5458428;22;20072;-90
2023/12/26 10:27:29;;;;;;;0.17;0.17;;;;;;;;;;5073867;28;20100;-91
2023/12/26 10:30:21;;;;;;;0.10;0.10;;;;;;;;;;5089077;28;20052;-90
2023/12/26 10:33:05;;;;;;;0.30;0.30;;;;;;;;;;5075579;28;20044;-91
2023/12/26 10:38:12;;;;;;;0.10;0.10;;;;;;;;;;5238661;22;20158;-90
2023/12/26 10:40:44;;;;;;;0.15;0.15;;;;;;;;;;5113022;28;20054;-92
2023/12/26 10:55:48;;;;;;;0.10;0.10;;;;;;;;;;5053181;28;20077;-90
2023/12/26 11:04:16;;;;;;;0.10;0.10;;;;;;;;;;5356602;22;20060;-91
2023/12/26 11:07:00;;;;;;;4.57;0.10;;;;;;;;;;5084879;28;20033;-91
2023/12/26 11:09:41;;;;;;;3.08;0.40;;;;;;;;;;5084842;28;20342;-91
2023/12/26 11:12:24;;;;;;;0.03;0.03;;;;;;;;;;5084508;28;20044;-91
2023/12/26 11:49:41;;;;;;;0.98;0.52;;;;;;;;;;5111703;28;20060;-92
2023/12/26 11:55:54;;;;;;;0.00;0.00;;;;;;;;;;5104407;28;20112;-91
2023/12/26 11:58:52;;;;;;;0.10;0.10;;;;;;;;;;5103377;28;20062;-91
2023/12/26 12:01:39;;;;;;;3.53;0.55;;;;;;;;;;5085512;28;20040;-92
2023/12/26 12:04:26;;;;;;;1.65;0.43;;;;;;;;;;5088145;28;20062;-92
2023/12/26 12:07:16;;;;;;;0.08;0.08;;;;;;;;;;5088473;28;20140;-91
2023/12/26 12:10:10;;;;;;;0.10;0.10;;;;;;;;;;5095472;28;20063;-91
2023/12/26 12:12:57;;;;;;;0.10;0.10;;;;;;;;;;5091923;28;20063;-91
2023/12/26 12:15:43;;;;;;;0.10;0.10;;;;;;;;;;5097183;28;20132;-91
2023/12/26 12:24:19;;;;;;;0.30;0.30;;;;;;;;;;5067019;28;20067;-92
2023/12/26 12:29:55;;;;;;;0.77;0.43;;;;;;;;;;5417896;22;20053;-91
2023/12/26 12:40:20;;;;;;;1.98;0.50;;;;;;;;;;5057183;28;20060;-92
2023/12/26 12:42:48;;;;;;;0.10;0.10;;;;;;;;;;5040045;28;20101;-91
2023/12/26 12:45:16;;;;;;;0.03;0.03;;;;;;;;;;5046619;28;20049;-91
2023/12/26 12:47:44;;;;;;;1.13;0.40;;;;;;;;;;5052157;28;20109;-92
2023/12/26 12:58:40;;;;;;;0.20;0.20;;;;;;;;;;5228489;22;20061;-92
2023/12/26 13:01:09;;;;;;;1.50;0.20;;;;;;;;;;5386006;22;20113;-92
2023/12/26 13:06:21;;;;;;;0.10;0.10;;;;;;;;;;5093791;28;20056;-92
2023/12/26 13:09:12;;;;;;;0.63;0.47;;;;;;;;;;5081313;28;20032;-91
2023/12/26 14:07:55;;;;;;;0.00;0.00;;;;;;;;;;4711797;22;20323;31
2023/12/26 14:28:43;;;;;;;0.05;0.05;;;;;;;;;;5082259;28;20117;-91
2023/12/26 15:26:57;;;;;;;;;;;;;;;;;;;;;
2023/12/26 18:59:46;;;;;;;0.10;0.10;;;;;;;;;;5047703;28;20089;-90
2023/12/26 19:02:43;;;;;;;0.10;0.10;;;;;;;;;;5027677;28;20049;-91
2023/12/26 19:15:52;;;;;;;0.10;0.10;;;;;;;;;;5053062;28;20067;-91
2023/12/26 19:18:37;;;;;;;0.20;0.20;;;;;;;;;;5093789;28;20037;-91
2023/12/26 19:24:02;;;;;;;3.03;0.93;;;;;;;;;;5317619;22;20048;-91
2023/12/26 19:27:29;;;;;;;0.13;0.13;;;;;;;;;;5064728;28;20489;-90
2023/12/26 19:33:15;;;;;;;0.15;0.15;;;;;;;;;;5782791;22;20060;-92
2023/12/26 19:38:36;;;;;;;0.10;0.10;;;;;;;;;;5072574;28;20017;-90
2023/12/26 19:47:35;;;;;;;0.20;0.20;;;;;;;;;;5099015;22;20070;-90
2023/12/26 19:50:43;;;;;;;0.10;0.10;;;;;;;;;;5087143;28;21002;-91
2023/12/26 19:53:52;;;;;;;;;;;;;;;;;;;;;
2023/12/26 19:56:51;;;;;;;0.00;0.00;;;;;;;;;;5078525;28;20215;-90
2023/12/26 20:05:19;;;;;;;;;;;;;;;;;;;;;
2023/12/26 20:08:19;;;;;;;0.17;0.17;;;;;;;;;;5049376;28;20112;-90
2023/12/26 20:11:13;;;;;;;1.30;0.82;;;;;;;;;;5041209;28;20037;-90
2023/12/26 20:14:19;;;;;;;0.13;0.13;;;;;;;;;;5034421;28;20042;-91
2023/12/26 20:17:34;;;;;;;;;;;;;;;;;;;;;
2023/12/26 20:20:37;;;;;;;0.35;0.35;;;;;;;;;;5054953;28;20029;-91
2023/12/26 20:23:29;;;;;;;;;;;;;;;;;;5048467;28;20427;-91
2023/12/26 20:26:21;;;;;;;0.20;0.20;;;;;;;;;;5114517;22;19928;-91
2023/12/26 20:43:51;;;;;;;4.13;0.82;;;;;;;;;;5047074;28;20060;-91
2023/12/26 20:46:39;;;;;;;4.93;0.30;;;;;;;;;;5001179;28;20050;-91
2023/12/26 20:49:24;;;;;;;0.20;0.20;;;;;;;;;;5042799;28;20049;-91
2023/12/26 20:52:16;;;;;;;0.13;0.13;;;;;;;;;;4951994;29;20043;-90
2023/12/26 21:20:47;;;;;;;0.20;0.20;;;;;;;;;;5067621;28;20329;-92
2023/12/26 21:23:32;;;;;;;3.28;0.63;;;;;;;;;;5052088;28;20053;-91
2023/12/26 21:26:16;;;;;;;0.20;0.20;;;;;;;;;;5069252;28;20537;-92
2023/12/26 21:34:10;;;;;;;2.20;1.17;;;;;;;;;;5063393;28;20061;-91
2023/12/26 21:36:40;;;;;;;0.20;0.20;;;;;;;;;;5049525;28;20260;-90
2023/12/26 21:39:18;;;;;;;0.38;0.38;;;;;;;;;;5051457;28;20052;-92
2023/12/26 21:41:50;;;;;;;0.10;0.10;;;;;;;;;;5054539;28;20077;-92
2023/12/26 21:44:26;;;;;;;0.20;0.20;;;;;;;;;;5308526;22;20047;-92
2023/12/26 21:47:07;;;;;;;0.10;0.10;;;;;;;;;;5078899;28;20056;-92
2023/12/26 21:49:53;;;;;;;0.10;0.10;;;;;;;;;;5094274;28;20091;-91
2023/12/26 21:52:34;;;;;;;0.20;0.20;;;;;;;;;;5078616;28;20053;-91
2023/12/26 21:55:09;;;;;;;0.40;0.40;;;;;;;;;;5077928;28;20111;-92
2023/12/26 21:57:53;;;;;;;0.20;0.20;;;;;;;;;;5078974;28;20040;-91
2023/12/26 22:00:41;;;;;;;0.17;0.17;;;;;;;;;;5081987;28;20048;-91
2023/12/26 22:06:27;;;;;;;0.10;0.10;;;;;;;;;;5078086;28;20087;-92
2023/12/26 22:08:56;;;;;;;0.20;0.20;;;;;;;;;;5076745;28;20048;-92
2023/12/26 22:11:32;;;;;;;0.20;0.20;;;;;;;;;;5075866;28;20044;-92
2023/12/26 22:14:08;;;;;;;0.10;0.10;;;;;;;;;;5078602;28;20109;-92
2023/12/26 22:16:43;;;;;;;0.13;0.13;;;;;;;;;;5095470;28;20049;-92
2023/12/26 22:19:38;;;;;;;0.15;0.15;;;;;;;;;;5093728;28;20076;-93
2023/12/26 22:24:54;;;;;;;0.10;0.10;;;;;;;;;;5292834;22;20124;-90
2023/12/26 22:27:52;;;;;;;0.10;0.10;;;;;;;;;;5078970;28;20032;-93
2023/12/26 22:30:35;;;;;;;0.20;0.20;;;;;;;;;;5089292;28;20128;-93
2023/12/26 22:33:19;;;;;;;0.10;0.10;;;;;;;;;;5090303;28;20053;-92
2023/12/26 22:36:13;;;;;;;0.20;0.20;;;;;;;;;;5088601;28;20048;-92
2023/12/26 22:38:53;;;;;;;0.95;0.95;;;;;;;;;;5074468;28;20092;-92
2023/12/26 22:41:46;;;;;;;0.20;0.20;;;;;;;;;;5072849;28;20052;-92
2023/12/26 22:47:42;;;;;;;0.20;0.20;;;;;;;;;;5085215;28;20071;-92
2023/12/26 22:54:03;;;;;;;0.15;0.15;;;;;;;;;;5087562;28;20431;-92
2023/12/26 22:56:42;;;;;;;0.20;0.20;;;;;;;;;;5087870;28;20048;-93
2023/12/26 22:59:29;;;;;;;0.20;0.20;;;;;;;;;;5074645;28;20048;-92
2023/12/26 23:02:25;;;;;;;0.20;0.20;;;;;;;;;;5076946;28;20048;-92
2023/12/26 23:05:06;;;;;;;0.20;0.20;;;;;;;;;;5082830;28;20062;-92
2023/12/26 23:21:19;;;;;;;0.05;0.05;;;;;;;;;;5386639;22;22055806;-90
2023/12/26 23:24:06;;;;;;;0.20;0.20;;;;;;;;;;6270699;22;20429;-90
2023/12/26 23:27:02;;;;;;;0.20;0.20;;;;;;;;;;6294772;22;20019;-91
2023/12/26 23:30:15;;;;;;;0.10;0.10;;;;;;;;;;6280522;22;20031;-91
2023/12/26 23:39:43;;;;;;;0.10;0.10;;;;;;;;;;6340497;22;20021;-91
2023/12/26 23:42:38;;;;;;;;;;;;;;;;;;;;;
2023/12/26 23:45:39;;;;;;;0.20;0.20;;;;;;;;;;6332086;22;20288;-89
2023/12/26 23:48:19;;;;;;;0.10;0.10;;;;;;;;;;6304359;22;20034;-90
2023/12/26 23:51:04;;;;;;;0.10;0.10;;;;;;;;;;6305940;22;20027;-91
2023/12/26 23:53:38;;;;;;;0.20;0.20;;;;;;;;;;6303157;22;20026;-90
2023/12/26 23:56:08;;;;;;;0.10;0.10;;;;;;;;;;6295846;22;20019;-91
2023/12/26 23:58:49;;;;;;;0.20;0.20;;;;;;;;;;6300367;22;20100;-92
